Wetterdaten: Woche 12.05.14 - 18.05.14 (KW20)
Datum Zeit Temp. A. Feuchte A. Luftdruck Regen Wind Richtung Sonnenschein ET UV Solar Taupunkt Windchill Windben
12.05.2014 00:00 7,5 C 81 % 1009,6 hPa 0,0 l/m 7,9 km/h (2 Bft) W-SW 0,00 h 0,025 mm 0,0 UV-I 0 W/m 4,4 C 6,2 C 13,1 km/h (3 Bft)
12.05.2014 01:00 7,5 C 83 % 1009,9 hPa 0,0 l/m 6,6 km/h (2 Bft) W-SW 0,00 h 0,025 mm 0,0 UV-I 0 W/m 4,8 C 6,8 C 10,7 km/h (2 Bft)
12.05.2014 02:00 7,4 C 86 % 1009,9 hPa 0,0 l/m 7,5 km/h (2 Bft) W-SW 0,00 h 0,025 mm 0,0 UV-I 0 W/m 5,2 C 6,3 C 12,2 km/h (2 Bft)
12.05.2014 03:00 7,2 C 88 % 1009,9 hPa 0,2 l/m 10,0 km/h (2 Bft) W-SW 0,00 h 0,025 mm 0,0 UV-I 0 W/m 5,4 C 4,7 C 15,5 km/h (3 Bft)
12.05.2014 04:00 7,1 C 88 % 1009,8 hPa 0,0 l/m 11,4 km/h (2 Bft) W-SW 0,00 h 0,000 mm 0,0 UV-I 0 W/m 5,3 C 3,7 C 17,6 km/h (3 Bft)
12.05.2014 05:00 7,1 C 87 % 1010,1 hPa 0,0 l/m 11,2 km/h (2 Bft) W-SW 0,00 h 0,025 mm 0,0 UV-I 13 W/m 5,1 C 3,8 C 16,9 km/h (3 Bft)
12.05.2014 06:00 7,2 C 85 % 1010,3 hPa 0,0 l/m 10,6 km/h (2 Bft) W-SW 0,42 h 0,025 mm 0,0 UV-I 61 W/m 4,8 C 4,2 C 16,2 km/h (3 Bft)
12.05.2014 07:00 7,3 C 82 % 1010,8 hPa 0,0 l/m 11,0 km/h (2 Bft) W-SW 0,73 h 0,051 mm 0,5 UV-I 65 W/m 4,4 C 4,1 C 17,0 km/h (3 Bft)
12.05.2014 08:00 7,7 C 81 % 1011,1 hPa 0,0 l/m 11,7 km/h (2 Bft) W 1,00 h 0,051 mm 0,8 UV-I 136 W/m 4,6 C 4,3 C 18,2 km/h (3 Bft)
12.05.2014 09:00 8,6 C 75 % 1011,3 hPa 0,0 l/m 14,1 km/h (3 Bft) W-SW 1,00 h 0,076 mm 1,5 UV-I 254 W/m 4,3 C 3,9 C 21,7 km/h (4 Bft)
12.05.2014 10:00 9,1 C 74 % 1011,5 hPa 0,0 l/m 13,6 km/h (3 Bft) W-SW 1,00 h 0,152 mm 2,9 UV-I 433 W/m 4,7 C 4,9 C 20,7 km/h (4 Bft)
12.05.2014 11:00 9,8 C 70 % 1011,6 hPa 0,0 l/m 14,8 km/h (3 Bft) W-SW 1,00 h 0,254 mm 2,7 UV-I 318 W/m 4,6 C 5,1 C 23,4 km/h (4 Bft)
12.05.2014 12:00 9,1 C 78 % 1011,5 hPa 0,2 l/m 10,4 km/h (2 Bft) W-NW 1,00 h 0,203 mm 1,6 UV-I 179 W/m 5,5 C 6,5 C 16,0 km/h (3 Bft)
12.05.2014 13:00 9,6 C 79 % 1011,5 hPa 0,0 l/m 12,2 km/h (2 Bft) NW 1,00 h 0,127 mm 2,7 UV-I 368 W/m 6,2 C 6,2 C 18,3 km/h (3 Bft)
12.05.2014 14:00 10,3 C 73 % 1011,4 hPa 0,0 l/m 12,8 km/h (3 Bft) W-SW 1,00 h 0,203 mm 4,4 UV-I 683 W/m 5,6 C 6,7 C 19,0 km/h (3 Bft)
12.05.2014 15:00 12,1 C 59 % 1010,9 hPa 0,0 l/m 15,4 km/h (3 Bft) W-SW 1,00 h 0,356 mm 3,5 UV-I 534 W/m 4,3 C 7,7 C 23,0 km/h (4 Bft)
12.05.2014 16:00 9,3 C 77 % 1011,2 hPa 0,2 l/m 10,6 km/h (2 Bft) W-SW 1,00 h 0,330 mm 1,2 UV-I 221 W/m 5,4 C 6,7 C 16,7 km/h (3 Bft)
12.05.2014 17:00 10,6 C 74 % 1011,1 hPa 0,0 l/m 10,0 km/h (2 Bft) W-SW 1,00 h 0,127 mm 1,6 UV-I 371 W/m 6,2 C 8,4 C 15,1 km/h (3 Bft)
12.05.2014 18:00 10,3 C 72 % 1011,0 hPa 0,8 l/m 8,3 km/h (2 Bft) W-NW 0,70 h 0,203 mm 0,7 UV-I 79 W/m 5,5 C 9,0 C 13,2 km/h (3 Bft)
12.05.2014 19:00 8,2 C 85 % 1011,4 hPa 0,0 l/m 5,7 km/h (1 Bft) W-SW 0,22 h 0,076 mm 0,0 UV-I 42 W/m 5,8 C 7,8 C 9,4 km/h (2 Bft)
12.05.2014 20:00 7,7 C 86 % 1011,4 hPa 0,0 l/m 3,2 km/h (1 Bft) SW 0,00 h 0,025 mm 0,0 UV-I 16 W/m 5,6 C 7,6 C 5,7 km/h (1 Bft)
12.05.2014 21:00 6,9 C 88 % 1011,9 hPa 0,0 l/m 1,4 km/h (1 Bft) SW 0,00 h 0,000 mm 0,0 UV-I 0 W/m 5,1 C 6,9 C 3,3 km/h (1 Bft)
12.05.2014 22:00 6,5 C 89 % 1012,3 hPa 0,0 l/m 3,0 km/h (1 Bft) SW 0,00 h 0,000 mm 0,0 UV-I 0 W/m 4,8 C 6,5 C 5,3 km/h (1 Bft)
12.05.2014 23:00 7,0 C 87 % 1012,5 hPa 0,0 l/m 4,7 km/h (1 Bft) W-SW 0,00 h 0,000 mm 0,0 UV-I 0 W/m 5,1 C 6,7 C 8,4 km/h (2 Bft)
13.05.2014 00:00 7,0 C 88 % 1012,8 hPa 0,0 l/m 4,1 km/h (1 Bft) W-SW 0,00 h 0,000 mm 0,0 UV-I 0 W/m 5,2 C 6,8 C 6,8 km/h (2 Bft)
13.05.2014 01:00 6,8 C 90 % 1012,8 hPa 0,0 l/m 3,4 km/h (1 Bft) SW 0,00 h 0,000 mm 0,0 UV-I 0 W/m 5,2 C 6,8 C 5,9 km/h (2 Bft)
13.05.2014 02:00 6,6 C 91 % 1012,9 hPa 0,0 l/m 2,8 km/h (1 Bft) S 0,00 h 0,000 mm 0,0 UV-I 0 W/m 5,1 C 6,6 C 4,9 km/h (1 Bft)
13.05.2014 03:00 6,4 C 91 % 1013,0 hPa 0,0 l/m 3,5 km/h (1 Bft) S 0,00 h 0,000 mm 0,0 UV-I 0 W/m 5,0 C 6,4 C 5,7 km/h (1 Bft)
13.05.2014 04:00 6,5 C 91 % 1013,0 hPa 0,0 l/m 3,7 km/h (1 Bft) SW 0,00 h 0,000 mm 0,0 UV-I 0 W/m 5,1 C 6,5 C 6,5 km/h (2 Bft)
13.05.2014 05:00 6,6 C 91 % 1013,0 hPa 0,0 l/m 3,4 km/h (1 Bft) W-SW 0,00 h 0,000 mm 0,0 UV-I 5 W/m 5,3 C 6,6 C 5,8 km/h (2 Bft)
13.05.2014 06:00 6,7 C 91 % 1013,1 hPa 0,0 l/m 4,6 km/h (1 Bft) W-SW 0,00 h 0,000 mm 0,0 UV-I 25 W/m 5,4 C 6,6 C 7,7 km/h (2 Bft)
13.05.2014 07:00 6,6 C 90 % 1013,6 hPa 0,0 l/m 4,1 km/h (1 Bft) W-SW 0,10 h 0,025 mm 0,0 UV-I 33 W/m 5,1 C 6,5 C 7,1 km/h (2 Bft)
13.05.2014 08:00 6,5 C 92 % 1013,9 hPa 0,4 l/m 5,5 km/h (1 Bft) W-SW 0,75 h 0,025 mm 0,5 UV-I 67 W/m 5,4 C 6,3 C 8,8 km/h (2 Bft)
13.05.2014 09:00 7,0 C 92 % 1014,1 hPa 0,0 l/m 6,5 km/h (2 Bft) W-SW 1,00 h 0,025 mm 0,7 UV-I 112 W/m 5,8 C 6,5 C 10,4 km/h (2 Bft)
13.05.2014 10:00 7,6 C 89 % 1014,5 hPa 0,0 l/m 6,2 km/h (2 Bft) W-NW 1,00 h 0,051 mm 0,7 UV-I 95 W/m 5,9 C 6,9 C 9,8 km/h (2 Bft)
13.05.2014 11:00 8,3 C 87 % 1014,7 hPa 0,0 l/m 6,8 km/h (2 Bft) W-SW 1,00 h 0,051 mm 1,8 UV-I 243 W/m 6,3 C 7,5 C 10,6 km/h (2 Bft)
13.05.2014 12:00 10,0 C 78 % 1014,5 hPa 0,0 l/m 7,6 km/h (2 Bft) W-SW 1,00 h 0,127 mm 3,2 UV-I 424 W/m 6,3 C 8,9 C 11,8 km/h (2 Bft)
13.05.2014 13:00 11,5 C 70 % 1014,1 hPa 0,0 l/m 9,7 km/h (2 Bft) W 1,00 h 0,254 mm 4,1 UV-I 560 W/m 6,2 C 9,5 C 15,2 km/h (3 Bft)
13.05.2014 14:00 12,6 C 61 % 1014,0 hPa 0,0 l/m 8,2 km/h (2 Bft) W 1,00 h 0,305 mm 3,3 UV-I 461 W/m 5,2 C 11,2 C 12,3 km/h (3 Bft)
13.05.2014 15:00 11,1 C 68 % 1014,4 hPa 0,0 l/m 11,9 km/h (2 Bft) W 1,00 h 0,254 mm 1,9 UV-I 278 W/m 5,4 C 8,0 C 18,0 km/h (3 Bft)
13.05.2014 16:00 11,5 C 65 % 1014,5 hPa 0,0 l/m 8,5 km/h (2 Bft) W 1,00 h 0,178 mm 1,8 UV-I 252 W/m 5,2 C 10,2 C 13,1 km/h (3 Bft)
13.05.2014 17:00 11,6 C 66 % 1014,5 hPa 0,0 l/m 4,7 km/h (1 Bft) W-SW 1,00 h 0,152 mm 1,2 UV-I 261 W/m 5,3 C 11,1 C 8,3 km/h (2 Bft)
13.05.2014 18:00 11,7 C 65 % 1014,9 hPa 0,0 l/m 7,7 km/h (2 Bft) N 0,95 h 0,152 mm 0,7 UV-I 114 W/m 5,4 C 10,6 C 11,7 km/h (2 Bft)
13.05.2014 19:00 10,1 C 72 % 1015,7 hPa 0,0 l/m 8,3 km/h (2 Bft) N-NW 0,37 h 0,076 mm 0,0 UV-I 50 W/m 5,3 C 8,6 C 13,1 km/h (3 Bft)
13.05.2014 20:00 8,9 C 77 % 1016,3 hPa 0,0 l/m 2,2 km/h (1 Bft) N-NW 0,00 h 0,051 mm 0,0 UV-I 10 W/m 5,2 C 8,9 C 4,1 km/h (1 Bft)
13.05.2014 21:00 7,9 C 83 % 1017,2 hPa 0,0 l/m 4,1 km/h (1 Bft) NW 0,00 h 0,000 mm 0,0 UV-I 0 W/m 5,1 C 7,8 C 6,7 km/h (2 Bft)
13.05.2014 22:00 7,5 C 86 % 1017,8 hPa 0,0 l/m 0,7 km/h (0 Bft) NW 0,00 h 0,025 mm 0,0 UV-I 0 W/m 5,3 C 7,5 C 2,1 km/h (1 Bft)
13.05.2014 23:00 7,2 C 88 % 1018,4 hPa 0,0 l/m 0,7 km/h (0 Bft) NW 0,00 h 0,000 mm 0,0 UV-I 0 W/m 5,3 C 7,2 C 1,7 km/h (1 Bft)
14.05.2014 00:00 6,9 C 90 % 1018,8 hPa 0,0 l/m 0,0 km/h (0 Bft) N 0,00 h 0,000 mm 0,0 UV-I 0 W/m 5,3 C 6,9 C 0,1 km/h (0 Bft)
14.05.2014 01:00 6,9 C 91 % 1019,3 hPa 0,0 l/m 0,1 km/h (0 Bft) NW 0,00 h 0,000 mm 0,0 UV-I 0 W/m 5,5 C 6,9 C 0,5 km/h (0 Bft)
14.05.2014 02:00 6,8 C 92 % 1019,6 hPa 0,0 l/m 1,5 km/h (1 Bft) NW 0,00 h 0,000 mm 0,0 UV-I 0 W/m 5,6 C 6,8 C 3,1 km/h (1 Bft)
14.05.2014 03:00 7,0 C 90 % 1019,9 hPa 0,0 l/m 4,3 km/h (1 Bft) N-NW 0,00 h 0,000 mm 0,0 UV-I 0 W/m 5,5 C 6,9 C 7,2 km/h (2 Bft)
14.05.2014 04:00 6,8 C 89 % 1020,4 hPa 0,0 l/m 6,0 km/h (2 Bft) NW 0,00 h 0,000 mm 0,0 UV-I 0 W/m 5,0 C 6,3 C 9,8 km/h (2 Bft)
14.05.2014 05:00 6,0 C 88 % 1021,0 hPa 0,0 l/m 5,7 km/h (1 Bft) N-NW 0,00 h 0,000 mm 0,0 UV-I 9 W/m 4,1 C 5,4 C 9,4 km/h (2 Bft)
14.05.2014 06:00 5,2 C 88 % 1021,8 hPa 0,0 l/m 5,0 km/h (1 Bft) N-NW 0,00 h 0,000 mm 0,0 UV-I 26 W/m 3,4 C 4,9 C 8,4 km/h (2 Bft)
14.05.2014 07:00 5,9 C 82 % 1022,4 hPa 0,0 l/m 12,4 km/h (3 Bft) N-NW 0,92 h 0,025 mm 0,7 UV-I 123 W/m 3,1 C 1,8 C 19,5 km/h (3 Bft)
14.05.2014 08:00 6,6 C 78 % 1023,0 hPa 0,0 l/m 12,0 km/h (2 Bft) N-NW 1,02 h 0,077 mm 1,1 UV-I 186 W/m 3,0 C 2,8 C 18,2 km/h (3 Bft)
14.05.2014 09:00 8,2 C 69 % 1023,5 hPa 0,0 l/m 11,9 km/h (2 Bft) N-NW 1,00 h 0,102 mm 2,0 UV-I 408 W/m 2,7 C 4,6 C 18,3 km/h (3 Bft)
14.05.2014 10:00 8,8 C 66 % 1023,8 hPa 0,0 l/m 10,7 km/h (2 Bft) N-NW 1,00 h 0,203 mm 2,7 UV-I 399 W/m 2,7 C 5,9 C 16,7 km/h (3 Bft)
14.05.2014 11:00 9,3 C 62 % 1024,2 hPa 0,0 l/m 11,1 km/h (2 Bft) N-NW 1,00 h 0,229 mm 3,0 UV-I 416 W/m 2,3 C 6,3 C 16,8 km/h (3 Bft)
14.05.2014 12:00 9,6 C 60 % 1024,4 hPa 0,0 l/m 10,3 km/h (2 Bft) N-NW 1,00 h 0,254 mm 2,5 UV-I 352 W/m 2,2 C 7,0 C 15,9 km/h (3 Bft)
14.05.2014 13:00 10,1 C 60 % 1024,6 hPa 0,0 l/m 9,3 km/h (2 Bft) N-NW 1,00 h 0,203 mm 4,0 UV-I 505 W/m 2,7 C 8,1 C 14,5 km/h (3 Bft)
14.05.2014 14:00 11,6 C 53 % 1024,4 hPa 0,0 l/m 12,0 km/h (2 Bft) NW 1,00 h 0,305 mm 3,3 UV-I 513 W/m 2,3 C 8,5 C 18,2 km/h (3 Bft)
14.05.2014 15:00 11,4 C 56 % 1024,4 hPa 0,0 l/m 12,4 km/h (3 Bft) N-NW 1,00 h 0,305 mm 3,6 UV-I 524 W/m 2,8 C 8,1 C 18,6 km/h (3 Bft)
14.05.2014 16:00 11,1 C 60 % 1024,4 hPa 0,2 l/m 11,1 km/h (2 Bft) NW 1,00 h 0,330 mm 1,8 UV-I 220 W/m 3,6 C 8,4 C 16,5 km/h (3 Bft)
14.05.2014 17:00 9,8 C 72 % 1024,8 hPa 0,0 l/m 8,5 km/h (2 Bft) W-NW 1,00 h 0,152 mm 1,6 UV-I 346 W/m 4,9 C 8,2 C 13,1 km/h (3 Bft)
14.05.2014 18:00 10,9 C 63 % 1024,6 hPa 0,0 l/m 8,3 km/h (2 Bft) N-NO 1,00 h 0,178 mm 0,7 UV-I 105 W/m 4,1 C 9,4 C 12,9 km/h (3 Bft)
14.05.2014 19:00 9,2 C 70 % 1025,5 hPa 2,0 l/m 10,6 km/h (2 Bft) N-NO 0,48 h 0,076 mm 0,5 UV-I 59 W/m 4,0 C 6,6 C 16,5 km/h (3 Bft)
14.05.2014 20:00 5,6 C 90 % 1026,5 hPa 0,6 l/m 3,7 km/h (1 Bft) N 0,07 h 0,051 mm 0,0 UV-I 21 W/m 4,1 C 4,5 C 6,6 km/h (2 Bft)
14.05.2014 21:00 5,2 C 92 % 1027,2 hPa 0,0 l/m 0,2 km/h (0 Bft) W 0,00 h 0,000 mm 0,0 UV-I 0 W/m 4,0 C 5,2 C 0,7 km/h (0 Bft)
14.05.2014 22:00 5,1 C 95 % 1027,4 hPa 0,0 l/m 0,8 km/h (0 Bft) W-NW 0,00 h 0,000 mm 0,0 UV-I 0 W/m 4,4 C 5,1 C 1,8 km/h (1 Bft)
14.05.2014 23:00 4,9 C 95 % 1027,5 hPa 0,0 l/m 0,1 km/h (0 Bft) W-NW 0,00 h 0,000 mm 0,0 UV-I 0 W/m 4,1 C 4,9 C 0,7 km/h (0 Bft)
15.05.2014 00:00 4,5 C 95 % 1027,8 hPa 0,0 l/m 0,1 km/h (0 Bft) W-NW 0,00 h 0,000 mm 0,0 UV-I 0 W/m 3,8 C 4,5 C 0,5 km/h (0 Bft)
15.05.2014 01:00 4,3 C 96 % 1027,6 hPa 0,0 l/m 0,0 km/h (0 Bft) W-NW 0,00 h 0,000 mm 0,0 UV-I 0 W/m 3,7 C 4,3 C 0,5 km/h (0 Bft)
15.05.2014 02:00 4,3 C 96 % 1027,5 hPa 0,0 l/m 0,2 km/h (0 Bft) W-NW 0,00 h 0,000 mm 0,0 UV-I 0 W/m 3,7 C 4,3 C 0,7 km/h (0 Bft)
15.05.2014 03:00 4,7 C 96 % 1027,6 hPa 0,0 l/m 1,3 km/h (1 Bft) NW 0,00 h 0,000 mm 0,0 UV-I 0 W/m 4,2 C 4,7 C 3,0 km/h (1 Bft)
15.05.2014 04:00 5,2 C 95 % 1028,1 hPa 0,0 l/m 3,1 km/h (1 Bft) NW 0,00 h 0,000 mm 0,0 UV-I 0 W/m 4,5 C 5,2 C 5,5 km/h (1 Bft)
15.05.2014 05:00 4,9 C 94 % 1028,5 hPa 0,0 l/m 4,9 km/h (1 Bft) N 0,00 h 0,000 mm 0,0 UV-I 9 W/m 4,1 C 4,7 C 7,8 km/h (2 Bft)
15.05.2014 06:00 5,0 C 93 % 1028,8 hPa 0,0 l/m 7,2 km/h (2 Bft) N-NW 0,27 h 0,000 mm 0,0 UV-I 37 W/m 4,0 C 4,1 C 10,7 km/h (2 Bft)
15.05.2014 07:00 5,8 C 90 % 1029,2 hPa 0,0 l/m 7,1 km/h (2 Bft) N-NW 1,00 h 0,025 mm 0,7 UV-I 163 W/m 4,2 C 4,6 C 12,1 km/h (2 Bft)
15.05.2014 08:00 5,8 C 85 % 1029,7 hPa 0,0 l/m 8,5 km/h (2 Bft) N 1,00 h 0,076 mm 1,0 UV-I 167 W/m 3,6 C 4,0 C 13,4 km/h (3 Bft)
15.05.2014 09:00 7,3 C 79 % 1029,9 hPa 0,0 l/m 13,4 km/h (3 Bft) N 1,00 h 0,102 mm 2,0 UV-I 416 W/m 3,9 C 2,8 C 18,3 km/h (3 Bft)
15.05.2014 10:00 9,6 C 67 % 1029,9 hPa 0,0 l/m 14,0 km/h (3 Bft) N 1,00 h 0,203 mm 4,0 UV-I 795 W/m 3,8 C 5,2 C 21,2 km/h (4 Bft)
15.05.2014 11:00 10,4 C 62 % 1029,7 hPa 0,0 l/m 13,6 km/h (3 Bft) N-NW 1,00 h 0,406 mm 4,5 UV-I 672 W/m 3,5 C 6,4 C 21,3 km/h (4 Bft)
15.05.2014 12:00 11,0 C 62 % 1029,6 hPa 0,0 l/m 11,8 km/h (2 Bft) N-NO 1,00 h 0,356 mm 4,4 UV-I 478 W/m 3,9 C 7,9 C 18,0 km/h (3 Bft)
15.05.2014 13:00 11,8 C 59 % 1029,5 hPa 0,0 l/m 11,5 km/h (2 Bft) N 1,00 h 0,305 mm 3,4 UV-I 408 W/m 4,0 C 8,9 C 17,6 km/h (3 Bft)
15.05.2014 14:00 11,9 C 59 % 1029,6 hPa 0,0 l/m 14,2 km/h (3 Bft) N 1,00 h 0,254 mm 3,6 UV-I 467 W/m 4,2 C 7,9 C 21,3 km/h (4 Bft)
15.05.2014 15:00 10,6 C 64 % 1029,7 hPa 0,0 l/m 11,5 km/h (2 Bft) N 1,00 h 0,305 mm 1,2 UV-I 154 W/m 4,0 C 7,6 C 17,2 km/h (3 Bft)
15.05.2014 16:00 10,3 C 67 % 1029,7 hPa 0,0 l/m 11,9 km/h (2 Bft) N 1,00 h 0,127 mm 1,3 UV-I 164 W/m 4,4 C 7,1 C 17,7 km/h (3 Bft)
15.05.2014 17:00 9,7 C 72 % 1029,6 hPa 0,0 l/m 9,3 km/h (2 Bft) N-NW 1,00 h 0,127 mm 0,7 UV-I 112 W/m 5,0 C 7,6 C 14,1 km/h (3 Bft)
15.05.2014 18:00 9,2 C 79 % 1029,5 hPa 0,0 l/m 9,3 km/h (2 Bft) N-NW 0,55 h 0,076 mm 0,6 UV-I 68 W/m 5,8 C 7,2 C 14,5 km/h (3 Bft)
15.05.2014 19:00 9,1 C 81 % 1029,4 hPa 0,0 l/m 5,4 km/h (1 Bft) N-NW 0,20 h 0,051 mm 0,0 UV-I 34 W/m 6,1 C 8,9 C 8,4 km/h (2 Bft)
15.05.2014 20:00 9,0 C 82 % 1029,4 hPa 0,0 l/m 3,3 km/h (1 Bft) N-NW 0,00 h 0,025 mm 0,0 UV-I 16 W/m 6,1 C 8,9 C 5,8 km/h (2 Bft)
15.05.2014 21:00 8,8 C 84 % 1029,5 hPa 0,0 l/m 2,8 km/h (1 Bft) N-NW 0,00 h 0,025 mm 0,0 UV-I 0 W/m 6,2 C 8,8 C 5,0 km/h (1 Bft)
15.05.2014 22:00 8,5 C 86 % 1029,1 hPa 0,0 l/m 3,5 km/h (1 Bft) W-NW 0,00 h 0,025 mm 0,0 UV-I 0 W/m 6,3 C 8,5 C 5,4 km/h (1 Bft)
15.05.2014 23:00 8,3 C 87 % 1029,2 hPa 0,0 l/m 4,8 km/h (1 Bft) N 0,00 h 0,001 mm 0,0 UV-I 0 W/m 6,3 C 8,1 C 7,6 km/h (2 Bft)
16.05.2014 00:00 8,1 C 87 % 1029,2 hPa 0,0 l/m 4,5 km/h (1 Bft) N 0,00 h 0,000 mm 0,0 UV-I 0 W/m 6,1 C 8,0 C 6,9 km/h (2 Bft)
16.05.2014 01:00 7,4 C 87 % 1028,8 hPa 0,0 l/m 5,4 km/h (1 Bft) N 0,00 h 0,025 mm 0,0 UV-I 0 W/m 5,4 C 7,2 C 7,9 km/h (2 Bft)
16.05.2014 02:00 7,1 C 88 % 1028,1 hPa 0,0 l/m 6,3 km/h (2 Bft) N 0,00 h 0,025 mm 0,0 UV-I 0 W/m 5,2 C 6,5 C 8,9 km/h (2 Bft)
16.05.2014 03:00 7,2 C 88 % 1027,5 hPa 0,0 l/m 6,7 km/h (2 Bft) N-NW 0,00 h 0,000 mm 0,0 UV-I 0 W/m 5,3 C 6,4 C 10,2 km/h (2 Bft)
16.05.2014 04:00 7,1 C 88 % 1027,1 hPa 0,0 l/m 6,2 km/h (2 Bft) N-NW 0,00 h 0,025 mm 0,0 UV-I 0 W/m 5,3 C 6,8 C 9,2 km/h (2 Bft)
16.05.2014 05:00 6,8 C 90 % 1027,1 hPa 0,0 l/m 6,4 km/h (2 Bft) N 0,00 h 0,000 mm 0,0 UV-I 11 W/m 5,2 C 6,0 C 10,1 km/h (2 Bft)
16.05.2014 06:00 6,6 C 90 % 1027,2 hPa 0,0 l/m 6,3 km/h (2 Bft) N-NW 0,42 h 0,000 mm 0,0 UV-I 49 W/m 5,0 C 5,6 C 9,6 km/h (2 Bft)
16.05.2014 07:00 7,3 C 83 % 1027,1 hPa 0,0 l/m 7,1 km/h (2 Bft) N-NW 1,00 h 0,025 mm 0,6 UV-I 106 W/m 4,7 C 6,2 C 10,3 km/h (2 Bft)
16.05.2014 08:00 8,3 C 74 % 1026,9 hPa 0,0 l/m 8,7 km/h (2 Bft) N-NW 1,00 h 0,051 mm 1,2 UV-I 263 W/m 4,0 C 6,6 C 13,6 km/h (3 Bft)
16.05.2014 09:00 10,0 C 63 % 1026,7 hPa 0,0 l/m 10,5 km/h (2 Bft) N 1,00 h 0,127 mm 2,0 UV-I 384 W/m 3,2 C 7,4 C 16,4 km/h (3 Bft)
16.05.2014 10:00 10,2 C 58 % 1026,5 hPa 0,0 l/m 11,9 km/h (2 Bft) N-NW 1,00 h 0,229 mm 2,4 UV-I 377 W/m 2,3 C 7,0 C 18,2 km/h (3 Bft)
16.05.2014 11:00 10,8 C 57 % 1026,2 hPa 0,0 l/m 12,8 km/h (3 Bft) N 1,00 h 0,229 mm 2,9 UV-I 407 W/m 2,7 C 7,2 C 18,6 km/h (3 Bft)
16.05.2014 12:00 12,6 C 53 % 1025,5 hPa 0,0 l/m 13,3 km/h (3 Bft) N 1,00 h 0,254 mm 3,8 UV-I 469 W/m 3,2 C 9,2 C 20,4 km/h (4 Bft)
16.05.2014 13:00 13,2 C 52 % 1024,7 hPa 0,0 l/m 16,6 km/h (3 Bft) N 1,00 h 0,305 mm 3,2 UV-I 400 W/m 3,5 C 8,6 C 26,8 km/h (4 Bft)
16.05.2014 14:00 13,0 C 56 % 1024,6 hPa 0,0 l/m 15,2 km/h (3 Bft) N 1,00 h 0,305 mm 2,3 UV-I 291 W/m 4,4 C 8,9 C 23,7 km/h (4 Bft)
16.05.2014 15:00 13,5 C 55 % 1024,3 hPa 0,0 l/m 19,0 km/h (3 Bft) N 1,00 h 0,229 mm 2,3 UV-I 317 W/m 4,6 C 8,3 C 29,8 km/h (5 Bft)
16.05.2014 16:00 13,1 C 59 % 1023,8 hPa 0,0 l/m 15,4 km/h (3 Bft) N 1,00 h 0,254 mm 1,4 UV-I 210 W/m 5,1 C 8,9 C 23,7 km/h (4 Bft)
16.05.2014 17:00 13,0 C 59 % 1023,2 hPa 0,0 l/m 18,0 km/h (3 Bft) N 1,00 h 0,178 mm 1,0 UV-I 158 W/m 5,1 C 7,8 C 27,6 km/h (4 Bft)
16.05.2014 18:00 12,4 C 60 % 1023,1 hPa 0,0 l/m 14,3 km/h (3 Bft) N 0,08 h 0,178 mm 0,0 UV-I 36 W/m 4,8 C 8,5 C 21,9 km/h (4 Bft)
16.05.2014 19:00 12,2 C 62 % 1023,0 hPa 0,0 l/m 10,8 km/h (2 Bft) N 0,00 h 0,076 mm 0,0 UV-I 26 W/m 5,0 C 9,7 C 16,5 km/h (3 Bft)
16.05.2014 20:00 11,9 C 63 % 1023,0 hPa 0,0 l/m 8,7 km/h (2 Bft) N 0,00 h 0,051 mm 0,0 UV-I 12 W/m 5,1 C 10,4 C 12,9 km/h (3 Bft)
16.05.2014 21:00 11,5 C 65 % 1023,0 hPa 0,0 l/m 6,6 km/h (2 Bft) N 0,00 h 0,051 mm 0,0 UV-I 0 W/m 5,1 C 10,9 C 10,3 km/h (2 Bft)
16.05.2014 22:00 11,0 C 67 % 1022,8 hPa 0,0 l/m 3,8 km/h (1 Bft) N 0,00 h 0,051 mm 0,0 UV-I 0 W/m 5,1 C 11,0 C 6,4 km/h (2 Bft)
16.05.2014 23:00 10,7 C 68 % 1022,5 hPa 0,0 l/m 2,1 km/h (1 Bft) N-NW 0,00 h 0,025 mm 0,0 UV-I 0 W/m 5,1 C 10,7 C 4,0 km/h (1 Bft)
17.05.2014 00:00 10,2 C 72 % 1021,9 hPa 0,0 l/m 4,0 km/h (1 Bft) N-NW 0,00 h 0,025 mm 0,0 UV-I 0 W/m 5,4 C 10,2 C 6,2 km/h (2 Bft)
17.05.2014 01:00 9,8 C 75 % 1021,5 hPa 0,0 l/m 4,5 km/h (1 Bft) N 0,00 h 0,025 mm 0,0 UV-I 0 W/m 5,5 C 9,7 C 6,8 km/h (2 Bft)
17.05.2014 02:00 9,4 C 77 % 1021,1 hPa 0,0 l/m 3,5 km/h (1 Bft) N 0,00 h 0,025 mm 0,0 UV-I 0 W/m 5,5 C 9,4 C 5,7 km/h (1 Bft)
17.05.2014 03:00 9,2 C 78 % 1020,5 hPa 0,0 l/m 5,7 km/h (1 Bft) N 0,00 h 0,025 mm 0,0 UV-I 0 W/m 5,5 C 8,9 C 8,9 km/h (2 Bft)
17.05.2014 04:00 9,1 C 78 % 1020,3 hPa 0,0 l/m 7,0 km/h (2 Bft) N 0,00 h 0,000 mm 0,0 UV-I 0 W/m 5,6 C 8,4 C 10,9 km/h (2 Bft)
17.05.2014 05:00 8,7 C 81 % 1019,8 hPa 0,0 l/m 6,1 km/h (2 Bft) N-NW 0,00 h 0,025 mm 0,0 UV-I 11 W/m 5,6 C 8,4 C 9,5 km/h (2 Bft)
17.05.2014 06:00 8,6 C 81 % 1019,8 hPa 0,0 l/m 6,0 km/h (2 Bft) N-NW 0,03 h 0,025 mm 0,0 UV-I 33 W/m 5,4 C 8,2 C 9,5 km/h (2 Bft)
17.05.2014 07:00 8,8 C 79 % 1020,0 hPa 0,0 l/m 3,9 km/h (1 Bft) N-NW 0,88 h 0,025 mm 0,7 UV-I 117 W/m 5,3 C 8,7 C 7,3 km/h (2 Bft)
17.05.2014 08:00 9,3 C 76 % 1020,0 hPa 0,0 l/m 6,7 km/h (2 Bft) N-NW 1,00 h 0,051 mm 0,9 UV-I 151 W/m 5,2 C 8,6 C 10,4 km/h (2 Bft)
17.05.2014 09:00 11,2 C 71 % 1019,6 hPa 0,0 l/m 9,4 km/h (2 Bft) N 1,00 h 0,076 mm 1,8 UV-I 273 W/m 6,1 C 9,3 C 14,8 km/h (3 Bft)
17.05.2014 10:00 12,2 C 66 % 1019,3 hPa 0,0 l/m 12,9 km/h (3 Bft) N 1,00 h 0,178 mm 2,3 UV-I 288 W/m 6,1 C 8,9 C 20,0 km/h (4 Bft)
17.05.2014 11:00 13,4 C 60 % 1019,0 hPa 0,0 l/m 14,0 km/h (3 Bft) N 1,00 h 0,203 mm 3,9 UV-I 435 W/m 5,8 C 9,7 C 21,6 km/h (4 Bft)
17.05.2014 12:00 12,7 C 55 % 1018,9 hPa 0,0 l/m 14,1 km/h (3 Bft) N 1,00 h 0,305 mm 3,2 UV-I 356 W/m 4,0 C 9,0 C 21,6 km/h (4 Bft)
17.05.2014 13:00 12,4 C 60 % 1018,8 hPa 0,0 l/m 11,4 km/h (2 Bft) N 1,00 h 0,254 mm 2,7 UV-I 300 W/m 4,9 C 9,6 C 17,5 km/h (3 Bft)
17.05.2014 14:00 12,6 C 68 % 1018,5 hPa 0,0 l/m 6,7 km/h (2 Bft) N-NW 1,00 h 0,203 mm 2,0 UV-I 217 W/m 6,8 C 11,9 C 11,1 km/h (2 Bft)
17.05.2014 15:00 14,0 C 63 % 1017,9 hPa 0,0 l/m 9,1 km/h (2 Bft) N-NW 1,00 h 0,127 mm 1,9 UV-I 221 W/m 7,0 C 12,4 C 14,7 km/h (3 Bft)
17.05.2014 16:00 12,6 C 68 % 1017,9 hPa 0,0 l/m 9,5 km/h (2 Bft) N 1,00 h 0,152 mm 0,7 UV-I 83 W/m 6,8 C 10,8 C 15,2 km/h (3 Bft)
17.05.2014 17:00 11,4 C 75 % 1017,9 hPa 0,0 l/m 10,3 km/h (2 Bft) N 1,00 h 0,076 mm 0,6 UV-I 94 W/m 7,2 C 9,2 C 15,1 km/h (3 Bft)
17.05.2014 18:00 11,5 C 73 % 1017,4 hPa 0,0 l/m 6,3 km/h (2 Bft) NW 1,00 h 0,076 mm 0,6 UV-I 99 W/m 6,8 C 11,0 C 9,7 km/h (2 Bft)
17.05.2014 19:00 11,8 C 69 % 1016,9 hPa 0,0 l/m 3,4 km/h (1 Bft) W 0,62 h 0,076 mm 0,0 UV-I 57 W/m 6,2 C 11,8 C 5,4 km/h (1 Bft)
17.05.2014 20:00 11,3 C 67 % 1016,6 hPa 0,0 l/m 2,9 km/h (1 Bft) W 0,00 h 0,051 mm 0,0 UV-I 17 W/m 5,5 C 11,3 C 4,7 km/h (1 Bft)
17.05.2014 21:00 10,7 C 71 % 1016,5 hPa 0,0 l/m 1,2 km/h (1 Bft) W-NW 0,00 h 0,025 mm 0,0 UV-I 0 W/m 5,7 C 10,7 C 2,3 km/h (1 Bft)
17.05.2014 22:00 10,5 C 76 % 1015,9 hPa 0,0 l/m 0,5 km/h (0 Bft) W-NW 0,00 h 0,025 mm 0,0 UV-I 0 W/m 6,5 C 10,5 C 1,4 km/h (1 Bft)
17.05.2014 23:00 11,6 C 82 % 1015,3 hPa 0,0 l/m 6,8 km/h (2 Bft) NW 0,00 h 0,025 mm 0,0 UV-I 0 W/m 8,6 C 10,8 C 11,1 km/h (2 Bft)
18.05.2014 00:00 11,4 C 87 % 1014,9 hPa 0,6 l/m 8,9 km/h (2 Bft) N 0,00 h 0,025 mm 0,0 UV-I 0 W/m 9,3 C 9,8 C 14,4 km/h (3 Bft)
18.05.2014 01:00 9,3 C 86 % 1015,0 hPa 0,0 l/m 8,7 km/h (2 Bft) N-NW 0,00 h 0,025 mm 0,0 UV-I 0 W/m 7,0 C 7,7 C 13,3 km/h (3 Bft)
18.05.2014 02:00 8,4 C 88 % 1015,1 hPa 0,0 l/m 5,1 km/h (1 Bft) N-NW 0,00 h 0,025 mm 0,0 UV-I 0 W/m 6,5 C 8,1 C 8,0 km/h (2 Bft)
18.05.2014 03:00 7,8 C 88 % 1014,7 hPa 0,0 l/m 6,6 km/h (2 Bft) N-NW 0,00 h 0,000 mm 0,0 UV-I 0 W/m 6,0 C 6,9 C 10,3 km/h (2 Bft)
18.05.2014 04:00 7,0 C 90 % 1014,6 hPa 0,0 l/m 4,2 km/h (1 Bft) NW 0,00 h 0,000 mm 0,0 UV-I 0 W/m 5,5 C 7,0 C 6,5 km/h (2 Bft)
18.05.2014 05:00 7,1 C 90 % 1014,5 hPa 0,0 l/m 1,9 km/h (1 Bft) NW 0,00 h 0,000 mm 0,0 UV-I 5 W/m 5,6 C 7,1 C 3,9 km/h (1 Bft)
18.05.2014 06:00 7,7 C 89 % 1014,5 hPa 0,0 l/m 0,4 km/h (0 Bft) N-NW 0,02 h 0,000 mm 0,0 UV-I 26 W/m 6,0 C 7,7 C 1,3 km/h (1 Bft)
18.05.2014 07:00 8,7 C 87 % 1014,2 hPa 0,0 l/m 1,5 km/h (1 Bft) N-NW 0,98 h 0,025 mm 0,5 UV-I 84 W/m 6,5 C 8,7 C 3,0 km/h (1 Bft)
18.05.2014 08:00 9,4 C 84 % 1014,0 hPa 0,0 l/m 3,9 km/h (1 Bft) NW 0,78 h 0,051 mm 0,5 UV-I 67 W/m 6,8 C 9,4 C 6,1 km/h (2 Bft)
18.05.2014 09:00 9,5 C 88 % 1013,7 hPa 0,2 l/m 3,3 km/h (1 Bft) NW 1,00 h 0,051 mm 0,6 UV-I 71 W/m 7,6 C 9,5 C 5,4 km/h (1 Bft)
18.05.2014 10:00 9,9 C 90 % 1013,3 hPa 0,0 l/m 4,6 km/h (1 Bft) NW 1,00 h 0,025 mm 0,6 UV-I 72 W/m 8,3 C 9,7 C 7,4 km/h (2 Bft)
18.05.2014 11:00 9,8 C 91 % 1013,3 hPa 0,4 l/m 6,8 km/h (2 Bft) NW 0,03 h 0,051 mm 0,0 UV-I 35 W/m 8,3 C 9,0 C 10,3 km/h (2 Bft)
18.05.2014 12:00 9,3 C 92 % 1013,1 hPa 2,4 l/m 4,4 km/h (1 Bft) N-NW 0,52 h 0,025 mm 0,5 UV-I 47 W/m 8,1 C 9,2 C 7,2 km/h (2 Bft)
18.05.2014 13:00 9,1 C 93 % 1013,1 hPa 1,6 l/m 0,8 km/h (0 Bft) N-NW 1,00 h 0,025 mm 0,7 UV-I 80 W/m 8,0 C 9,1 C 1,8 km/h (1 Bft)
18.05.2014 14:00 9,1 C 93 % 1013,1 hPa 1,4 l/m 0,7 km/h (0 Bft) N-NW 0,97 h 0,025 mm 0,8 UV-I 89 W/m 8,0 C 9,1 C 1,3 km/h (1 Bft)
18.05.2014 15:00 9,3 C 93 % 1013,1 hPa 1,6 l/m 3,3 km/h (1 Bft) N-NW 1,00 h 0,051 mm 0,7 UV-I 86 W/m 8,2 C 9,3 C 5,4 km/h (1 Bft)
18.05.2014 16:00 9,5 C 93 % 1012,9 hPa 0,8 l/m 2,0 km/h (1 Bft) N-NW 1,00 h 0,051 mm 0,9 UV-I 121 W/m 8,3 C 9,5 C 4,0 km/h (1 Bft)
18.05.2014 17:00 9,5 C 92 % 1012,7 hPa 0,4 l/m 1,2 km/h (1 Bft) N-NW 1,00 h 0,051 mm 0,8 UV-I 152 W/m 8,2 C 9,5 C 2,3 km/h (1 Bft)
18.05.2014 18:00 9,9 C 93 % 1012,5 hPa 0,0 l/m 0,7 km/h (0 Bft) N-NW 0,60 h 0,076 mm 0,6 UV-I 85 W/m 8,8 C 9,9 C 1,8 km/h (1 Bft)
18.05.2014 19:00 9,8 C 94 % 1012,4 hPa 0,4 l/m 1,0 km/h (0 Bft) N-NW 0,12 h 0,051 mm 0,0 UV-I 31 W/m 8,9 C 9,8 C 2,5 km/h (1 Bft)
18.05.2014 20:00 9,7 C 95 % 1012,2 hPa 0,0 l/m 0,4 km/h (0 Bft) NW 0,00 h 0,025 mm 0,0 UV-I 8 W/m 8,9 C 9,7 C 1,3 km/h (1 Bft)
18.05.2014 21:00 9,4 C 96 % 1012,2 hPa 0,0 l/m 1,3 km/h (1 Bft) NW 0,00 h 0,000 mm 0,0 UV-I 0 W/m 8,8 C 9,4 C 2,5 km/h (1 Bft)
18.05.2014 22:00 9,3 C 96 % 1012,1 hPa 0,2 l/m 1,0 km/h (0 Bft) S-SW 0,00 h 0,000 mm 0,0 UV-I 0 W/m 8,7 C 9,3 C 2,4 km/h (1 Bft)
18.05.2014 23:00 9,3 C 96 % 1012,0 hPa 0,0 l/m 0,3 km/h (0 Bft) S-SW 0,00 h 0,000 mm 0,0 UV-I 0 W/m 8,7 C 9,3 C 1,1 km/h (1 Bft)
Min-Datum _ 13.05.14 14.05.14 12.05.14 - 12.05.14 - - - - - 14.05.14 14.05.14 12.05.14
_ Min-Zeit 08:26 15:12 00:00 - 20:25 - - - - - 12:38 07:29 08:31
Minimum _ 0,0 C 47 % 1009,1 hPa - 0,0 km/h (0 Bft) - - - - - 0,8 C -1,7 C 0,0 km/h (0 Bft)
Max-Datum _ 17.05.14 15.05.14 15.05.14 18.05.14 14.05.14 - 14.05.14 15.05.14 14.05.14 14.05.14 18.05.14 17.05.14 16.05.14
_ Max-Zeit 15:11 02:49 09:35 12:01 19:51 - 08:02 11:00 13:26 12:17 00:25 15:11 17:44
Maximum _ 14,8 C 97 % 1030,1 hPa 2,4 l/m 32,2 km/h
N-NO (5 Bft)
- 0,07 h 0,406 mm 7,2 UV-I 1280 W/m 9,8 C 14,7 C 46,7 km/h
N (6 Bft)
Durchschnitt _ 9,0 C 79 % 1019,4 hPa #14,6 l/m 7,0 km/h (2 Bft) N-NW #81:47 h #14,543 mm 1,8 UV-I 201 W/m 5,3 C 7,6 C 11,0 km/h (2 Bft)